Time;durP1;ratioP1;P1;durP2;ratioP2;P2;SDS_P1;SDS_P2;PMS_P1;PMS_P2;Temp;Humidity;BMP_temperature;BMP_pressure;BME280_temperature;BME280_humidity;BME280_pressure;Samples;Min_cycle;Max_cycle;Signal;HPM_P1;HPM_P2
2023/06/10 00:00:00;;;;;;;10.75;4.80;;;16.30;95.90;;;;;;5083428;28;20216;-40
2023/06/10 00:02:27;;;;;;;13.35;5.30;;;16.20;96.90;;;;;;5076843;28;20024;-39
2023/06/10 00:04:53;;;;;;;11.02;5.15;;;16.20;97.70;;;;;;5066796;28;20020;-39
2023/06/10 00:07:20;;;;;;;11.65;4.55;;;16.10;98.90;;;;;;5067401;28;20024;-39
2023/06/10 00:09:50;;;;;;;9.05;5.35;;;16.00;99.90;;;;;;5076857;28;20028;-39
2023/06/10 00:12:16;;;;;;;18.13;5.53;;;16.00;99.90;;;;;;5068708;28;20017;-39
2023/06/10 00:14:45;;;;;;;8.02;5.22;;;16.00;99.90;;;;;;5068368;28;20032;-39
2023/06/10 00:17:15;;;;;;;8.68;5.40;;;15.90;99.90;;;;;;5068439;28;20478;-39
2023/06/10 00:19:46;;;;;;;8.15;5.10;;;15.90;99.90;;;;;;5068348;28;20039;-39
2023/06/10 00:22:12;;;;;;;12.90;5.72;;;15.80;99.90;;;;;;5068479;28;20378;-38
2023/06/10 00:24:38;;;;;;;11.88;5.70;;;15.70;99.90;;;;;;5078660;28;20505;-39
2023/06/10 00:27:05;;;;;;;13.25;5.32;;;15.60;99.90;;;;;;5078619;28;20028;-39
2023/06/10 00:29:30;;;;;;;12.52;5.65;;;15.60;99.90;;;;;;5078730;28;20526;-39
2023/06/10 00:31:59;;;;;;;13.90;5.22;;;15.50;99.90;;;;;;5068476;28;20115;-39
2023/06/10 00:34:25;;;;;;;12.80;5.45;;;15.50;99.90;;;;;;5067739;28;20521;-39
2023/06/10 00:36:54;;;;;;;14.05;5.88;;;15.40;99.90;;;;;;5067935;28;20112;-39
2023/06/10 00:39:22;;;;;;;12.80;5.30;;;15.40;99.90;;;;;;5068288;28;20035;-39
2023/06/10 00:41:48;;;;;;;15.60;6.35;;;15.30;99.90;;;;;;5068310;28;20020;-39
2023/06/10 00:44:13;;;;;;;12.63;5.35;;;15.30;99.90;;;;;;5068346;28;20017;-39
2023/06/10 00:46:39;;;;;;;12.05;6.70;;;15.20;99.90;;;;;;5067330;28;20029;-39
2023/06/10 00:49:05;;;;;;;16.35;6.20;;;15.10;99.90;;;;;;5068002;28;20100;-39
2023/06/10 00:51:31;;;;;;;15.35;6.38;;;15.10;99.90;;;;;;5067825;28;20029;-39
2023/06/10 00:53:57;;;;;;;19.88;6.60;;;15.10;99.90;;;;;;5073309;28;20542;-39
2023/06/10 00:56:23;;;;;;;15.00;6.40;;;15.00;99.90;;;;;;5079033;28;20375;-39
2023/06/10 00:58:48;;;;;;;16.90;6.55;;;15.00;99.90;;;;;;5088200;28;20024;-39
2023/06/10 01:01:14;;;;;;;20.88;6.95;;;15.00;99.90;;;;;;5079766;28;20035;-39
2023/06/10 01:03:40;;;;;;;13.85;6.50;;;14.90;99.90;;;;;;5071341;28;20315;-39
2023/06/10 01:06:33;;;;;;;10.25;6.43;;;14.90;99.90;;;;;;5073216;28;20367;-39
2023/06/10 01:09:25;;;;;;;13.23;6.20;;;14.90;99.90;;;;;;5068070;28;20024;-39
2023/06/10 01:12:08;;;;;;;14.82;6.93;;;14.80;99.90;;;;;;5058405;28;20036;-39
2023/06/10 01:14:35;;;;;;;15.13;7.18;;;14.80;99.90;;;;;;5074542;28;20028;-39
2023/06/10 01:17:03;;;;;;;14.07;6.60;;;14.60;99.90;;;;;;5067590;28;20036;-38
2023/06/10 01:19:30;;;;;;;16.48;6.47;;;14.60;99.90;;;;;;5076272;28;20032;-38
2023/06/10 01:22:00;;;;;;;10.82;6.00;;;14.50;99.90;;;;;;5067762;28;20031;-38
2023/06/10 01:24:26;;;;;;;11.85;6.75;;;14.50;99.90;;;;;;5066164;28;20013;-38
2023/06/10 01:26:53;;;;;;;12.75;6.07;;;14.50;99.90;;;;;;5070082;28;20312;-38
2023/06/10 01:29:32;;;;;;;12.65;6.57;;;14.50;99.90;;;;;;5089185;28;20028;-38
2023/06/10 01:32:07;;;;;;;11.70;6.65;;;14.40;99.90;;;;;;5063513;28;20548;-38
2023/06/10 01:34:35;;;;;;;13.20;7.05;;;14.40;99.90;;;;;;5070556;28;20108;-43
2023/06/10 01:37:02;;;;;;;11.88;6.70;;;14.40;99.90;;;;;;5079447;28;20103;-38
2023/06/10 01:39:28;;;;;;;14.45;7.30;;;14.30;99.90;;;;;;5079390;28;20036;-38
2023/06/10 01:41:55;;;;;;;16.05;7.22;;;14.30;99.90;;;;;;5070861;28;20033;-38
2023/06/10 01:44:22;;;;;;;16.35;7.28;;;14.20;99.90;;;;;;5070949;28;20052;-38
2023/06/10 01:46:49;;;;;;;17.88;7.25;;;14.20;99.90;;;;;;5077956;28;20115;-38
2023/06/10 01:49:15;;;;;;;16.55;7.35;;;14.10;99.90;;;;;;5071141;28;20029;-38
2023/06/10 01:51:40;;;;;;;11.90;6.32;;;14.10;99.90;;;;;;5070808;28;20041;-38
2023/06/10 01:54:06;;;;;;;16.10;7.15;;;14.00;99.90;;;;;;5077660;28;20031;-38
2023/06/10 01:56:33;;;;;;;15.23;7.53;;;14.00;99.90;;;;;;5072166;28;20477;-38
2023/06/10 01:59:01;;;;;;;11.40;6.95;;;14.00;99.90;;;;;;5077502;28;20108;-38
2023/06/10 02:01:27;;;;;;;13.05;7.38;;;14.00;99.90;;;;;;5087224;28;20024;-38
2023/06/10 02:03:53;;;;;;;14.13;7.45;;;14.00;99.90;;;;;;5074071;28;20485;-38
2023/06/10 02:06:20;;;;;;;14.77;7.75;;;14.00;99.90;;;;;;5082432;28;20103;-38
2023/06/10 02:08:46;;;;;;;12.82;6.63;;;14.00;99.90;;;;;;5081338;28;20116;-38
2023/06/10 02:11:11;;;;;;;19.00;8.20;;;13.90;99.90;;;;;;5075319;28;20013;-38
2023/06/10 02:13:38;;;;;;;15.93;7.70;;;13.90;99.90;;;;;;5070344;28;20024;-39
2023/06/10 02:16:05;;;;;;;18.67;7.65;;;13.90;99.90;;;;;;5070193;28;20032;-39
2023/06/10 02:18:31;;;;;;;11.70;6.22;;;13.90;99.90;;;;;;5072171;28;20020;-39
2023/06/10 02:20:57;;;;;;;17.67;6.97;;;13.90;99.90;;;;;;5084133;28;20445;-38
2023/06/10 02:23:23;;;;;;;17.52;8.15;;;13.80;99.90;;;;;;5070515;28;20099;-39
2023/06/10 02:25:49;;;;;;;14.00;7.35;;;13.80;99.90;;;;;;5090556;28;20044;-40
2023/06/10 02:28:17;;;;;;;15.48;7.00;;;13.70;99.90;;;;;;5086515;28;20378;-40
2023/06/10 02:30:43;;;;;;;13.85;7.80;;;13.70;99.90;;;;;;5078716;28;20031;-39
2023/06/10 02:33:10;;;;;;;14.90;7.97;;;13.70;99.90;;;;;;5070346;28;20052;-39
2023/06/10 02:35:40;;;;;;;15.80;7.60;;;13.70;99.90;;;;;;5068450;28;20455;-40
2023/06/10 02:38:06;;;;;;;15.40;7.75;;;13.60;99.90;;;;;;5070080;28;20070;-39
2023/06/10 02:40:32;;;;;;;14.35;7.50;;;13.60;99.90;;;;;;5079865;28;20028;-40
2023/06/10 02:42:58;;;;;;;18.70;7.60;;;13.50;99.90;;;;;;5076335;28;20107;-39
2023/06/10 02:45:24;;;;;;;12.10;6.85;;;13.60;99.90;;;;;;5076394;28;20078;-39
2023/06/10 02:47:50;;;;;;;14.65;7.85;;;13.50;99.90;;;;;;5073461;28;20032;-40
2023/06/10 02:50:15;;;;;;;12.10;7.60;;;13.50;99.90;;;;;;5072663;28;20027;-39
2023/06/10 02:52:42;;;;;;;14.68;7.47;;;13.50;99.90;;;;;;5069670;28;20017;-39
2023/06/10 02:55:07;;;;;;;15.13;7.03;;;13.50;99.90;;;;;;5069497;28;20028;-39
2023/06/10 02:57:33;;;;;;;15.32;8.45;;;13.50;99.90;;;;;;5077620;28;20319;-39
2023/06/10 02:59:59;;;;;;;15.70;7.32;;;13.50;99.90;;;;;;5083016;28;20046;-39
2023/06/10 03:02:28;;;;;;;13.63;7.55;;;13.40;99.90;;;;;;5080838;28;20021;-40
2023/06/10 03:04:55;;;;;;;16.65;8.32;;;13.30;99.90;;;;;;5077469;28;20012;-41
2023/06/10 03:07:21;;;;;;;16.35;8.20;;;13.30;99.90;;;;;;5067923;28;20023;-39
2023/06/10 03:09:46;;;;;;;14.88;7.95;;;13.30;99.90;;;;;;5076555;28;20028;-40
2023/06/10 03:12:12;;;;;;;18.02;8.75;;;13.30;99.90;;;;;;5076344;28;20024;-40
2023/06/10 03:14:38;;;;;;;17.20;8.10;;;13.30;99.90;;;;;;5088805;28;20020;-40
2023/06/10 03:17:04;;;;;;;14.95;9.18;;;13.30;99.90;;;;;;5075067;28;20016;-41
2023/06/10 03:19:31;;;;;;;11.85;7.88;;;13.30;99.90;;;;;;5069020;28;20051;-40
2023/06/10 03:22:10;;;;;;;16.60;7.57;;;13.30;99.90;;;;;;5077635;28;20031;-39
2023/06/10 03:24:39;;;;;;;13.40;7.53;;;13.30;99.90;;;;;;5067501;28;20434;-39
2023/06/10 03:27:09;;;;;;;17.15;7.82;;;13.30;99.90;;;;;;5075334;28;20487;-39
2023/06/10 03:29:35;;;;;;;11.68;7.82;;;13.30;99.90;;;;;;5087303;28;20480;-39
2023/06/10 03:32:01;;;;;;;12.45;7.47;;;13.30;99.90;;;;;;5069212;28;20058;-39
2023/06/10 03:34:26;;;;;;;14.95;7.55;;;13.30;99.90;;;;;;5069600;28;20042;-39
2023/06/10 03:36:52;;;;;;;14.05;7.68;;;13.30;99.90;;;;;;5076260;28;20482;-39
2023/06/10 03:39:17;;;;;;;15.98;8.07;;;13.30;99.90;;;;;;5069022;28;20024;-39
2023/06/10 03:41:43;;;;;;;16.33;7.57;;;13.20;99.90;;;;;;5068732;28;20048;-39
2023/06/10 03:44:08;;;;;;;13.90;7.95;;;13.30;99.90;;;;;;5068606;28;20020;-39
2023/06/10 03:46:34;;;;;;;19.25;9.30;;;13.30;99.90;;;;;;5070027;28;20020;-40
2023/06/10 03:49:03;;;;;;;18.95;8.57;;;13.20;99.90;;;;;;5075316;28;20567;-39
2023/06/10 03:51:29;;;;;;;20.23;8.68;;;13.20;99.90;;;;;;5077716;28;20296;-39
2023/06/10 03:53:54;;;;;;;19.38;10.05;;;13.20;99.90;;;;;;5087297;28;20489;-39
2023/06/10 03:56:20;;;;;;;15.35;8.40;;;13.20;99.90;;;;;;5071551;28;20025;-39
2023/06/10 03:58:45;;;;;;;18.65;8.98;;;13.20;99.90;;;;;;5080460;28;20023;-39
2023/06/10 04:01:13;;;;;;;16.98;8.90;;;13.20;99.90;;;;;;5073309;28;20095;-39
2023/06/10 04:03:39;;;;;;;16.00;7.93;;;13.20;99.90;;;;;;5070971;28;20070;-39
2023/06/10 04:06:04;;;;;;;17.20;7.45;;;13.30;99.90;;;;;;5088322;28;20043;-39
2023/06/10 04:08:31;;;;;;;16.35;7.97;;;13.30;99.90;;;;;;5086969;28;20024;-39
2023/06/10 04:10:57;;;;;;;17.95;8.25;;;13.30;99.90;;;;;;5068746;28;20350;-39
2023/06/10 04:13:23;;;;;;;18.00;9.05;;;13.30;99.90;;;;;;5068194;28;20065;-39
2023/06/10 04:15:48;;;;;;;22.85;8.15;;;13.30;99.90;;;;;;5076084;28;20027;-39
2023/06/10 04:18:14;;;;;;;19.13;7.78;;;13.30;99.90;;;;;;5068191;28;20316;-40
2023/06/10 04:20:40;;;;;;;11.77;6.90;;;13.40;99.90;;;;;;5068060;28;20043;-40
2023/06/10 04:23:06;;;;;;;17.27;6.57;;;13.40;99.90;;;;;;5068595;28;20021;-39
2023/06/10 04:25:31;;;;;;;13.25;7.43;;;13.50;99.90;;;;;;5067563;28;20479;-39
2023/06/10 04:27:57;;;;;;;16.85;6.60;;;13.50;99.90;;;;;;5076252;28;20473;-39
2023/06/10 04:30:22;;;;;;;17.80;6.97;;;13.50;99.90;;;;;;5085292;28;20537;-39
2023/06/10 04:32:48;;;;;;;18.17;7.32;;;13.60;99.90;;;;;;5076440;28;20478;-39
2023/06/10 04:35:16;;;;;;;13.80;7.07;;;13.60;99.90;;;;;;5075307;28;20047;-39
2023/06/10 04:37:42;;;;;;;11.70;5.93;;;13.60;99.90;;;;;;5068439;28;20033;-39
2023/06/10 04:40:08;;;;;;;13.75;6.70;;;13.60;99.90;;;;;;5074744;28;20016;-39
2023/06/10 04:42:34;;;;;;;14.20;6.88;;;13.60;99.90;;;;;;5078047;28;20516;-40
2023/06/10 04:45:00;;;;;;;13.43;6.63;;;13.70;99.90;;;;;;5067981;28;20047;-39
2023/06/10 04:47:26;;;;;;;13.75;6.82;;;13.70;99.90;;;;;;5077100;28;20533;-39
2023/06/10 04:49:52;;;;;;;17.23;7.07;;;13.80;99.90;;;;;;5088553;28;20016;-39
2023/06/10 04:52:17;;;;;;;14.32;6.93;;;13.80;99.90;;;;;;5071909;28;20399;-40
2023/06/10 04:54:43;;;;;;;12.27;6.75;;;13.80;99.90;;;;;;5067227;28;20020;-40
2023/06/10 04:57:09;;;;;;;15.20;6.57;;;13.80;99.90;;;;;;5074201;28;20020;-39
2023/06/10 04:59:38;;;;;;;8.90;5.90;;;13.80;99.90;;;;;;5080090;28;20024;-41
2023/06/10 05:02:04;;;;;;;17.13;6.53;;;13.90;99.90;;;;;;5088093;28;20016;-39
2023/06/10 05:04:30;;;;;;;9.18;6.35;;;14.00;99.90;;;;;;5089633;28;20046;-39
2023/06/10 05:06:55;;;;;;;9.60;6.05;;;14.00;99.90;;;;;;5091837;28;20012;-39
2023/06/10 05:09:21;;;;;;;15.57;5.95;;;14.00;99.90;;;;;;5074913;28;20077;-39
2023/06/10 05:11:47;;;;;;;10.90;6.22;;;14.10;99.90;;;;;;5083617;28;20020;-39
2023/06/10 05:14:12;;;;;;;12.65;5.57;;;14.10;99.90;;;;;;5091710;28;20028;-39
2023/06/10 05:16:38;;;;;;;16.23;6.60;;;14.20;99.90;;;;;;5080532;28;20092;-39
2023/06/10 05:19:04;;;;;;;16.55;6.07;;;14.20;99.90;;;;;;5071643;28;20028;-39
2023/06/10 05:21:30;;;;;;;13.50;6.07;;;14.30;99.90;;;;;;5070649;28;20039;-39
2023/06/10 05:23:55;;;;;;;15.43;7.00;;;14.40;99.90;;;;;;5072386;28;20013;-40
2023/06/10 05:26:21;;;;;;;13.70;5.15;;;14.40;99.90;;;;;;5069107;28;20048;-39
2023/06/10 05:28:47;;;;;;;15.98;6.30;;;14.40;99.90;;;;;;5068006;28;20025;-39
2023/06/10 05:31:13;;;;;;;15.23;6.32;;;14.40;99.90;;;;;;5072351;28;20025;-40
2023/06/10 05:33:39;;;;;;;8.80;5.47;;;14.50;99.90;;;;;;5071307;28;20020;-40
2023/06/10 05:36:05;;;;;;;9.52;5.07;;;14.50;99.90;;;;;;5070323;28;20016;-40
2023/06/10 05:38:30;;;;;;;11.57;5.30;;;14.50;99.90;;;;;;5080841;28;20539;-39
2023/06/10 05:40:56;;;;;;;13.43;5.05;;;14.60;99.90;;;;;;5082978;28;20042;-39
2023/06/10 05:43:22;;;;;;;15.45;5.85;;;14.60;99.90;;;;;;5072534;28;20111;-39
2023/06/10 05:45:48;;;;;;;24.25;6.75;;;14.60;99.90;;;;;;5070227;28;20099;-40
2023/06/10 05:48:13;;;;;;;13.95;5.75;;;14.70;99.90;;;;;;5078326;28;20604;-41
2023/06/10 05:50:42;;;;;;;12.52;5.60;;;14.70;99.90;;;;;;5071774;28;20492;-40
2023/06/10 05:53:14;;;;;;;18.17;6.75;;;14.70;99.90;;;;;;5077134;28;20024;-41
2023/06/10 05:55:43;;;;;;;9.60;4.88;;;14.70;99.90;;;;;;5073403;28;20017;-40
2023/06/10 05:58:08;;;;;;;12.95;5.88;;;14.80;99.90;;;;;;5076905;28;20039;-41
2023/06/10 06:00:34;;;;;;;12.75;5.75;;;14.90;99.90;;;;;;5073710;28;20060;-42
2023/06/10 06:03:00;;;;;;;11.88;5.95;;;14.90;99.90;;;;;;5084472;28;20027;-40
2023/06/10 06:05:25;;;;;;;13.30;5.60;;;14.90;99.90;;;;;;5070172;28;20386;-40
2023/06/10 06:07:51;;;;;;;15.63;6.22;;;14.90;99.90;;;;;;5069555;28;20017;-40
2023/06/10 06:10:19;;;;;;;14.55;6.28;;;15.00;99.90;;;;;;5079177;28;20091;-40
2023/06/10 06:12:45;;;;;;;20.13;6.05;;;15.10;99.90;;;;;;5070523;28;20039;-40
2023/06/10 06:15:11;;;;;;;16.60;6.18;;;15.20;99.90;;;;;;5069353;28;20016;-40
2023/06/10 06:17:37;;;;;;;12.38;5.28;;;15.30;99.90;;;;;;5080028;28;20031;-40
2023/06/10 06:20:03;;;;;;;8.35;5.32;;;15.40;99.90;;;;;;5090666;28;20055;-40
2023/06/10 06:22:29;;;;;;;15.80;6.07;;;15.40;99.90;;;;;;5081228;28;20032;-40
2023/06/10 06:24:55;;;;;;;10.57;5.93;;;15.50;99.90;;;;;;5069835;28;20494;-41
2023/06/10 06:27:21;;;;;;;14.25;5.80;;;15.60;99.90;;;;;;5069139;28;20099;-40
2023/06/10 06:29:47;;;;;;;11.65;5.28;;;15.60;99.90;;;;;;5081248;28;20050;-40
2023/06/10 06:32:12;;;;;;;11.75;5.20;;;15.70;99.90;;;;;;5091161;28;20028;-40
2023/06/10 06:34:38;;;;;;;17.92;5.47;;;15.90;99.90;;;;;;5073336;28;20036;-42
2023/06/10 06:37:04;;;;;;;10.07;5.47;;;15.90;99.90;;;;;;5077187;28;20021;-40
2023/06/10 06:39:29;;;;;;;16.45;6.22;;;16.00;99.90;;;;;;5070334;28;20092;-42
2023/06/10 06:41:55;;;;;;;13.90;5.82;;;16.10;99.90;;;;;;5070124;28;20584;-41
2023/06/10 06:44:20;;;;;;;9.95;4.88;;;16.10;99.90;;;;;;5069592;28;20021;-40
2023/06/10 06:46:46;;;;;;;9.35;4.97;;;16.10;99.90;;;;;;5072076;28;20019;-41
2023/06/10 06:49:11;;;;;;;10.88;5.57;;;16.20;99.90;;;;;;5083916;28;20042;-41
2023/06/10 06:51:37;;;;;;;10.52;5.20;;;16.30;99.90;;;;;;5077750;28;20556;-41
2023/06/10 06:54:02;;;;;;;10.95;5.20;;;16.50;99.90;;;;;;5069350;28;20096;-40
2023/06/10 06:56:28;;;;;;;17.13;5.75;;;16.60;99.90;;;;;;5077259;28;20112;-41
2023/06/10 06:58:54;;;;;;;11.88;5.30;;;16.70;99.90;;;;;;5069061;28;20568;-40
2023/06/10 07:01:19;;;;;;;14.75;6.40;;;16.90;99.90;;;;;;5075013;28;20024;-40
2023/06/10 07:03:45;;;;;;;12.27;5.40;;;17.00;99.90;;;;;;5084975;28;20381;-41
2023/06/10 07:06:10;;;;;;;17.00;6.03;;;17.10;99.90;;;;;;5067343;28;20013;-40
2023/06/10 07:08:36;;;;;;;13.90;5.85;;;17.30;99.90;;;;;;5067510;28;20074;-40
2023/06/10 07:11:01;;;;;;;10.93;5.40;;;17.30;99.90;;;;;;5067897;28;20304;-41
2023/06/10 07:13:27;;;;;;;13.35;5.70;;;17.30;99.90;;;;;;5068739;28;20016;-41
2023/06/10 07:15:52;;;;;;;11.35;5.65;;;17.40;99.90;;;;;;5067854;28;20078;-40
2023/06/10 07:18:18;;;;;;;11.60;5.15;;;17.60;99.90;;;;;;5067902;28;20048;-40
2023/06/10 07:20:44;;;;;;;10.90;5.57;;;17.70;99.90;;;;;;5067280;28;20131;-40
2023/06/10 07:23:09;;;;;;;19.15;6.70;;;17.80;99.90;;;;;;5073477;28;20043;-42
2023/06/10 07:25:35;;;;;;;12.45;5.22;;;17.90;99.90;;;;;;5069254;28;20016;-42
2023/06/10 07:28:00;;;;;;;17.42;6.03;;;18.10;99.90;;;;;;5079911;28;20380;-40
2023/06/10 07:30:26;;;;;;;13.25;6.40;;;18.20;99.90;;;;;;5079772;28;20102;-40
2023/06/10 07:32:51;;;;;;;13.02;5.05;;;18.10;99.90;;;;;;5080937;28;20012;-41
2023/06/10 07:35:17;;;;;;;9.20;5.40;;;18.20;99.90;;;;;;5088925;28;20030;-40
2023/06/10 07:37:42;;;;;;;9.85;5.68;;;18.30;99.90;;;;;;5070558;28;20016;-41
2023/06/10 07:40:09;;;;;;;13.52;6.15;;;18.40;99.90;;;;;;5077572;28;20086;-40
2023/06/10 07:42:37;;;;;;;13.77;5.97;;;18.70;99.90;;;;;;5068741;28;20028;-41
2023/06/10 07:45:04;;;;;;;14.40;6.63;;;18.90;99.90;;;;;;5068190;28;20024;-42
2023/06/10 07:47:30;;;;;;;15.80;6.88;;;18.90;99.90;;;;;;5068689;28;20029;-41
2023/06/10 07:49:56;;;;;;;15.68;6.90;;;19.00;99.90;;;;;;5069330;28;20020;-41
2023/06/10 07:52:21;;;;;;;11.95;5.95;;;19.20;99.90;;;;;;5069220;28;20067;-41
2023/06/10 07:54:47;;;;;;;12.75;6.45;;;19.40;99.90;;;;;;5075161;28;20541;-41
2023/06/10 07:57:12;;;;;;;11.88;5.85;;;19.50;99.90;;;;;;5068496;28;20127;-41
2023/06/10 07:59:38;;;;;;;12.02;6.38;;;19.80;99.90;;;;;;5068381;28;20029;-41
2023/06/10 08:02:05;;;;;;;11.65;5.88;;;20.00;99.90;;;;;;5088574;28;20016;-41
2023/06/10 08:04:30;;;;;;;13.02;7.07;;;20.20;99.90;;;;;;5079453;28;20020;-42
2023/06/10 08:06:56;;;;;;;11.80;5.82;;;20.40;99.90;;;;;;5076646;28;20028;-42
2023/06/10 08:09:23;;;;;;;10.43;6.13;;;20.70;99.90;;;;;;5068657;28;20062;-43
2023/06/10 08:11:48;;;;;;;12.80;5.32;;;21.20;99.90;;;;;;5074882;28;20024;-44
2023/06/10 08:14:14;;;;;;;10.60;5.63;;;22.40;99.90;;;;;;5088348;28;20027;-41
2023/06/10 08:16:40;;;;;;;6.78;4.40;;;23.70;97.40;;;;;;5069768;28;20062;-42
2023/06/10 08:19:05;;;;;;;11.57;4.43;;;24.70;95.50;;;;;;5068480;28;20359;-43
2023/06/10 08:21:31;;;;;;;7.25;4.28;;;25.50;93.10;;;;;;5076249;28;20222;-41
2023/06/10 08:23:56;;;;;;;12.82;5.15;;;26.50;91.30;;;;;;5076334;28;20393;-43
2023/06/10 08:26:22;;;;;;;7.43;5.18;;;27.20;88.80;;;;;;5076284;28;20123;-43
2023/06/10 08:28:48;;;;;;;8.57;5.30;;;27.60;83.60;;;;;;5068173;28;20028;-43
2023/06/10 08:31:13;;;;;;;9.10;4.60;;;27.70;82.00;;;;;;5076054;28;20013;-42
2023/06/10 08:33:39;;;;;;;7.40;4.30;;;28.70;79.60;;;;;;5085917;28;20028;-43
2023/06/10 08:36:05;;;;;;;6.30;4.63;;;29.20;77.60;;;;;;5088483;28;20024;-42
2023/06/10 08:38:30;;;;;;;9.07;5.05;;;29.70;76.00;;;;;;5082038;28;20012;-42
2023/06/10 08:41:00;;;;;;;10.05;5.07;;;30.40;73.00;;;;;;5092095;28;20028;-43
2023/06/10 08:43:33;;;;;;;;;;;30.60;71.80;;;;;;5081391;28;20017;-44
2023/06/10 08:46:01;;;;;;;8.20;4.63;;;30.60;69.70;;;;;;5073057;28;20143;-42
2023/06/10 08:48:30;;;;;;;8.40;5.00;;;31.10;69.70;;;;;;5084277;28;20117;-43
2023/06/10 08:50:58;;;;;;;5.78;4.18;;;31.90;67.20;;;;;;5080343;28;20070;-42
2023/06/10 08:53:25;;;;;;;8.02;4.78;;;32.60;66.30;;;;;;5080186;28;20016;-44
2023/06/10 08:55:54;;;;;;;8.73;4.68;;;33.00;63.60;;;;;;5081853;28;20023;-43
2023/06/10 08:58:20;;;;;;;10.90;5.05;;;33.80;62.30;;;;;;5077077;28;20039;-42
2023/06/10 09:00:46;;;;;;;7.07;4.45;;;33.70;61.60;;;;;;5071322;28;20029;-42
2023/06/10 09:03:12;;;;;;;7.32;4.45;;;34.50;61.80;;;;;;5071838;28;20103;-44
2023/06/10 09:05:38;;;;;;;6.82;4.10;;;34.80;60.00;;;;;;5079094;28;20500;-45
2023/06/10 09:08:06;;;;;;;10.65;5.25;;;34.60;59.40;;;;;;5080024;28;20108;-42
2023/06/10 09:10:32;;;;;;;6.25;4.10;;;34.70;59.30;;;;;;5078632;28;20478;-46
2023/06/10 09:12:58;;;;;;;7.68;4.15;;;34.90;58.80;;;;;;5071321;28;20400;-43
2023/06/10 09:15:23;;;;;;;6.97;4.10;;;34.80;59.00;;;;;;5070670;28;20024;-42
2023/06/10 09:17:50;;;;;;;11.57;4.75;;;34.90;58.50;;;;;;5079740;28;20035;-44
2023/06/10 09:20:16;;;;;;;6.47;3.95;;;35.00;57.90;;;;;;5071853;28;20095;-43
2023/06/10 09:22:43;;;;;;;7.93;4.43;;;34.60;58.10;;;;;;5071441;28;20128;-42
2023/06/10 09:25:11;;;;;;;6.82;3.90;;;34.90;58.10;;;;;;5069833;28;20017;-43
2023/06/10 09:27:49;;;;;;;10.48;4.20;;;35.70;57.10;;;;;;5071146;28;20070;-44
2023/06/10 09:30:29;;;;;;;8.32;4.63;;;35.60;56.50;;;;;;5071041;28;20020;-43
2023/06/10 09:32:56;;;;;;;14.95;4.15;;;35.70;56.40;;;;;;5071092;28;20036;-43
2023/06/10 09:35:26;;;;;;;5.72;3.85;;;35.00;57.30;;;;;;5077493;28;20023;-43
2023/06/10 09:37:57;;;;;;;6.32;4.20;;;35.00;58.50;;;;;;5087366;28;20089;-43
2023/06/10 09:40:23;;;;;;;8.02;4.57;;;35.00;57.70;;;;;;5086877;28;20012;-43
2023/06/10 09:42:55;;;;;;;7.03;3.78;;;34.50;57.50;;;;;;5072642;28;20512;-42
2023/06/10 09:45:21;;;;;;;6.00;4.25;;;34.60;57.90;;;;;;5070632;28;20020;-44
2023/06/10 09:47:47;;;;;;;7.82;4.53;;;35.30;58.10;;;;;;5070856;28;20103;-45
2023/06/10 09:50:13;;;;;;;6.85;4.20;;;36.10;56.40;;;;;;5078556;28;20021;-43
2023/06/10 09:52:41;;;;;;;8.80;4.78;;;36.60;56.30;;;;;;5070065;28;20031;-43
2023/06/10 09:55:08;;;;;;;6.93;4.50;;;36.40;56.30;;;;;;5086032;28;20150;-43
2023/06/10 09:57:35;;;;;;;5.35;4.00;;;36.60;55.40;;;;;;5069509;28;20048;-45
2023/06/10 10:00:09;;;;;;;7.65;4.28;;;36.40;55.30;;;;;;5062267;28;20093;-43
2023/06/10 10:02:50;;;;;;;8.82;3.83;;;36.90;54.40;;;;;;5077960;28;20021;-45
2023/06/10 10:05:18;;;;;;;7.10;4.32;;;37.20;54.00;;;;;;5064474;28;20478;-43
2023/06/10 10:07:45;;;;;;;8.02;4.43;;;37.10;54.40;;;;;;5080924;28;20055;-46
2023/06/10 10:10:12;;;;;;;6.93;4.78;;;36.70;54.30;;;;;;5070241;28;20013;-44
2023/06/10 10:12:39;;;;;;;8.80;4.82;;;37.20;54.20;;;;;;5077770;28;20537;-45
2023/06/10 10:15:11;;;;;;;9.07;4.75;;;37.50;52.80;;;;;;5090358;28;20484;-44
2023/06/10 10:17:42;;;;;;;6.55;4.75;;;37.70;53.20;;;;;;5082543;28;20104;-43
2023/06/10 10:20:12;;;;;;;9.07;4.03;;;37.70;52.40;;;;;;5063187;28;20025;-44
2023/06/10 10:22:39;;;;;;;7.95;4.47;;;38.20;51.90;;;;;;5070164;28;20025;-42
2023/06/10 10:25:15;;;;;;;7.65;4.90;;;38.10;52.00;;;;;;5073830;28;20333;-44
2023/06/10 10:27:56;;;;;;;11.38;4.45;;;38.10;51.10;;;;;;5077245;28;20120;-43
2023/06/10 10:30:25;;;;;;;6.30;4.60;;;38.40;50.20;;;;;;5076326;28;20095;-43
2023/06/10 10:33:01;;;;;;;8.02;5.18;;;38.30;52.40;;;;;;5071807;28;20028;-43
2023/06/10 10:35:33;;;;;;;11.88;4.68;;;38.70;50.20;;;;;;5075281;28;20389;-44
2023/06/10 10:38:02;;;;;;;10.15;4.85;;;39.30;50.10;;;;;;5080787;28;20598;-44
2023/06/10 10:40:29;;;;;;;;;;;39.00;50.70;;;;;;5070543;28;20426;-45
2023/06/10 10:42:57;;;;;;;12.05;5.47;;;39.20;50.40;;;;;;5068529;28;19924;-43
2023/06/10 10:45:22;;;;;;;7.40;4.90;;;39.00;50.00;;;;;;5069545;28;20024;-44
2023/06/10 10:47:53;;;;;;;9.18;4.95;;;38.50;50.40;;;;;;5069998;28;20386;-45
2023/06/10 10:50:20;;;;;;;9.18;5.20;;;39.50;49.50;;;;;;5076162;28;20470;-42
2023/06/10 10:53:01;;;;;;;9.90;4.72;;;39.80;49.30;;;;;;5067481;28;20727;-43
2023/06/10 10:55:27;;;;;;;7.32;4.47;;;39.30;50.10;;;;;;5067369;28;20044;-43
2023/06/10 10:57:56;;;;;;;6.68;4.65;;;38.80;51.00;;;;;;5076393;28;20035;-43
2023/06/10 11:00:43;;;;;;;5.70;4.72;;;39.00;50.30;;;;;;5065497;28;20697;-44
2023/06/10 11:03:16;;;;;;;8.68;5.10;;;38.50;50.50;;;;;;5075640;28;20029;-43
2023/06/10 11:05:50;;;;;;;10.18;5.38;;;39.10;50.00;;;;;;5075944;28;20030;-45
2023/06/10 11:08:42;;;;;;;6.57;4.85;;;39.30;49.40;;;;;;5067771;28;20017;-44
2023/06/10 11:11:23;;;;;;;5.47;4.60;;;38.70;50.60;;;;;;5061401;28;20074;-42
2023/06/10 11:14:01;;;;;;;7.30;4.82;;;38.20;51.70;;;;;;5077596;28;20020;-44
2023/06/10 11:16:42;;;;;;;11.90;5.68;;;38.50;51.10;;;;;;5073892;28;20093;-43
2023/06/10 11:19:08;;;;;;;9.52;4.93;;;38.80;50.90;;;;;;5061893;28;20478;-43
2023/06/10 11:22:04;;;;;;;9.45;5.57;;;38.80;51.10;;;;;;5069496;28;20371;-43
2023/06/10 11:24:30;;;;;;;6.30;4.38;;;38.90;50.00;;;;;;5069172;28;20020;-43
2023/06/10 11:27:16;;;;;;;7.32;4.82;;;38.70;50.60;;;;;;5068778;28;20023;-42
2023/06/10 11:30:02;;;;;;;9.85;5.05;;;39.10;50.50;;;;;;5070965;28;20032;-43
2023/06/10 11:32:33;;;;;;;9.93;4.95;;;38.80;49.30;;;;;;5089277;28;20301;-43
2023/06/10 11:34:58;;;;;;;8.43;5.47;;;38.70;50.80;;;;;;5088550;28;20020;-43
2023/06/10 11:37:24;;;;;;;5.47;4.68;;;38.90;49.90;;;;;;5079509;28;20260;-43
2023/06/10 11:39:54;;;;;;;5.18;4.68;;;39.50;49.30;;;;;;5077213;28;20040;-43
2023/06/10 11:42:20;;;;;;;8.10;5.15;;;38.90;50.70;;;;;;5067270;28;20135;-43
2023/06/10 11:44:50;;;;;;;9.52;5.35;;;38.80;50.20;;;;;;5067805;28;20354;-43
2023/06/10 11:47:17;;;;;;;6.75;4.97;;;38.80;50.00;;;;;;5068682;28;20527;-43
2023/06/10 11:49:42;;;;;;;12.30;5.88;;;39.00;50.40;;;;;;5068686;28;20027;-44
2023/06/10 11:52:08;;;;;;;9.57;5.55;;;38.50;49.40;;;;;;5075111;28;20028;-45
2023/06/10 11:54:34;;;;;;;9.25;5.55;;;38.30;50.50;;;;;;5065934;28;20051;-43
2023/06/10 11:57:02;;;;;;;5.25;4.75;;;38.30;50.00;;;;;;5067885;28;20028;-43
2023/06/10 11:59:29;;;;;;;8.00;5.65;;;38.00;50.80;;;;;;5068528;28;20466;-43
2023/06/10 12:01:56;;;;;;;9.80;6.05;;;37.50;51.80;;;;;;5082623;28;20119;-43
2023/06/10 12:04:22;;;;;;;10.93;6.32;;;37.00;52.30;;;;;;5078763;28;20023;-42
2023/06/10 12:06:48;;;;;;;10.35;5.93;;;36.40;53.80;;;;;;5076346;28;20020;-44
2023/06/10 12:09:20;;;;;;;7.95;5.82;;;36.00;53.30;;;;;;5070688;28;20438;-43
2023/06/10 12:11:52;;;;;;;10.40;6.80;;;35.60;54.20;;;;;;5069489;28;20025;-43
2023/06/10 12:14:56;;;;;;;12.02;6.32;;;35.30;54.70;;;;;;5075115;28;20103;-43
2023/06/10 12:17:22;;;;;;;10.30;6.72;;;35.00;55.00;;;;;;5068298;28;20059;-43
2023/06/10 12:19:49;;;;;;;9.63;6.57;;;34.90;54.30;;;;;;5068124;28;20323;-42
2023/06/10 12:22:16;;;;;;;9.00;6.93;;;34.60;54.50;;;;;;5068672;28;20024;-42
2023/06/10 12:25:06;;;;;;;11.35;7.20;;;34.50;55.70;;;;;;5066541;28;20518;-44
2023/06/10 12:27:33;;;;;;;10.80;6.60;;;34.40;55.40;;;;;;5064418;28;20127;-43
2023/06/10 12:30:05;;;;;;;9.10;5.95;;;34.10;54.10;;;;;;5068746;28;20060;-42
2023/06/10 12:32:45;;;;;;;10.77;6.53;;;34.00;55.20;;;;;;5087819;28;20085;-42
2023/06/10 12:35:12;;;;;;;6.45;5.70;;;34.10;54.00;;;;;;5068452;28;20499;-42
2023/06/10 12:37:39;;;;;;;10.65;7.43;;;33.80;54.90;;;;;;5068533;28;20051;-42
2023/06/10 12:40:06;;;;;;;9.48;6.97;;;33.50;54.10;;;;;;5076458;28;20067;-43
2023/06/10 12:42:35;;;;;;;12.10;7.38;;;33.20;54.90;;;;;;5066895;28;20393;-43